Time;durP1;ratioP1;P1;durP2;ratioP2;P2;SDS_P1;SDS_P2;PMS_P1;PMS_P2;Temp;Humidity;BMP_temperature;BMP_pressure;BME280_temperature;BME280_humidity;BME280_pressure;Samples;Min_cycle;Max_cycle;Signal;HPM_P1;HPM_P2
2021/09/12 00:00:36;;;;;;;10.73;7.90;;;;;;;14.42;100.00;100884.63;4992991;28;20041;-80
2021/09/12 00:03:02;;;;;;;12.90;9.32;;;;;;;14.41;100.00;100882.03;4990419;28;20070;-79
2021/09/12 00:05:30;;;;;;;12.25;9.00;;;;;;;14.35;100.00;100883.09;5007426;28;20042;-80
2021/09/12 00:07:56;;;;;;;11.68;8.43;;;;;;;14.35;100.00;100883.97;5008212;28;20084;-79
2021/09/12 00:10:23;;;;;;;10.02;7.53;;;;;;;14.31;100.00;100877.03;4979436;28;20077;-78
2021/09/12 00:12:50;;;;;;;11.45;8.23;;;;;;;14.31;100.00;100876.16;5006086;28;20070;-81
2021/09/12 00:15:17;;;;;;;11.38;8.52;;;;;;;14.32;100.00;100875.22;5020279;28;20095;-78
2021/09/12 00:17:47;;;;;;;10.75;8.35;;;;;;;14.33;100.00;100874.31;5001451;28;20042;-79
2021/09/12 00:20:14;;;;;;;12.10;8.25;;;;;;;14.29;100.00;100875.31;4975623;28;20060;-79
2021/09/12 00:22:41;;;;;;;11.68;8.18;;;;;;;14.24;100.00;100872.81;5001500;28;20057;-79
2021/09/12 00:25:08;;;;;;;11.45;8.57;;;;;;;14.25;100.00;100868.38;5010033;28;20100;-80
2021/09/12 00:27:35;;;;;;;10.15;7.82;;;;;;;14.22;100.00;100865.81;5006221;28;20491;-79
2021/09/12 00:30:03;;;;;;;11.07;7.72;;;;;;;14.21;100.00;100864.97;4991487;28;20846;-77
2021/09/12 00:32:30;;;;;;;11.63;8.82;;;;;;;14.16;100.00;100874.84;5025210;28;20042;-78
2021/09/12 00:34:57;;;;;;;10.52;7.90;;;;;;;14.16;100.00;100869.53;4991242;28;20495;-79
2021/09/12 00:37:23;;;;;;;9.98;8.20;;;;;;;14.13;100.00;100863.47;5002054;28;20053;-79
2021/09/12 00:39:50;;;;;;;11.02;8.40;;;;;;;14.13;100.00;100863.47;5004666;28;20141;-77
2021/09/12 00:42:17;;;;;;;11.38;8.85;;;;;;;14.07;100.00;100865.38;4975528;28;20084;-78
2021/09/12 00:44:43;;;;;;;9.95;7.70;;;;;;;14.05;100.00;100867.22;5009280;28;20089;-77
2021/09/12 00:47:12;;;;;;;11.38;8.10;;;;;;;14.10;100.00;100869.72;4990767;28;20570;-78
2021/09/12 00:49:43;;;;;;;11.15;8.70;;;;;;;14.11;100.00;100866.16;4994536;28;20186;-77
2021/09/12 00:52:12;;;;;;;13.23;9.30;;;;;;;14.08;100.00;100859.16;5011512;28;20046;-78
2021/09/12 00:54:39;;;;;;;11.23;8.48;;;;;;;14.05;100.00;100872.53;4997022;28;20046;-78
2021/09/12 00:57:08;;;;;;;11.05;7.70;;;;;;;14.02;100.00;100869.97;4991969;28;20042;-77
2021/09/12 00:59:39;;;;;;;10.98;8.30;;;;;;;13.97;100.00;100874.56;5007656;28;20038;-77
2021/09/12 01:02:08;;;;;;;10.98;7.95;;;;;;;13.94;100.00;100871.13;5005546;28;20407;-78
2021/09/12 01:04:36;;;;;;;11.45;8.60;;;;;;;13.93;100.00;100872.03;5002944;28;20054;-78
2021/09/12 01:07:05;;;;;;;12.18;8.10;;;;;;;13.96;100.00;100871.97;5025276;28;20045;-77
2021/09/12 01:09:34;;;;;;;10.20;7.88;;;;;;;13.97;100.00;100871.03;5011413;28;20097;-76
2021/09/12 01:12:01;;;;;;;9.75;7.35;;;;;;;13.95;100.00;100867.53;4997201;28;20049;-77
2021/09/12 01:14:29;;;;;;;10.50;7.78;;;;;;;13.93;100.00;100867.59;4993412;28;20042;-77
2021/09/12 01:16:57;;;;;;;11.27;8.07;;;;;;;13.93;100.00;100872.91;4992208;28;20068;-78
2021/09/12 01:19:23;;;;;;;10.23;7.78;;;;;;;13.91;100.00;100865.91;4989536;28;20045;-77
2021/09/12 01:21:55;;;;;;;11.20;7.47;;;;;;;13.88;100.00;100864.22;5007169;28;20141;-77
2021/09/12 01:24:23;;;;;;;10.25;8.00;;;;;;;13.89;100.00;100867.75;5024204;28;20053;-77
2021/09/12 01:26:50;;;;;;;10.68;8.40;;;;;;;13.91;100.00;100869.44;4990332;28;20049;-81
2021/09/12 01:29:17;;;;;;;10.43;8.55;;;;;;;13.84;100.00;100870.53;5010778;28;20077;-77
2021/09/12 01:31:43;;;;;;;11.38;8.40;;;;;;;13.88;100.00;100876.66;5005742;28;20104;-77
2021/09/12 01:34:10;;;;;;;11.23;7.97;;;;;;;13.95;100.00;100872.84;4983070;28;21005;-82
2021/09/12 01:36:37;;;;;;;10.90;8.60;;;;;;;13.92;100.00;100868.53;5008776;28;20104;-79
2021/09/12 01:39:04;;;;;;;9.90;8.30;;;;;;;13.92;100.00;100868.53;5010080;28;20041;-79
2021/09/12 01:41:31;;;;;;;11.80;8.57;;;;;;;13.94;100.00;100871.13;5030203;28;20038;-79
2021/09/12 01:44:00;;;;;;;9.73;7.60;;;;;;;13.96;100.00;100864.88;4996240;28;20049;-78
2021/09/12 01:46:30;;;;;;;9.75;6.97;;;;;;;13.95;100.00;100863.09;4999751;28;20495;-78
2021/09/12 01:49:06;;;;;;;11.98;8.13;;;;;;;13.98;100.00;100862.16;5008862;28;20065;-78
2021/09/12 01:51:32;;;;;;;10.60;8.30;;;;;;;13.97;100.00;100865.72;5013133;28;20573;-83
2021/09/12 01:53:59;;;;;;;10.32;8.13;;;;;;;13.99;100.00;100867.41;4997397;28;20088;-78
2021/09/12 01:56:26;;;;;;;10.50;7.88;;;;;;;14.01;100.00;100868.22;4998039;28;20188;-77
2021/09/12 01:59:00;;;;;;;11.02;8.30;;;;;;;13.95;100.00;100863.09;4996079;28;20041;-81
2021/09/12 02:01:27;;;;;;;10.18;8.07;;;;;;;13.89;100.00;100865.97;5014731;28;20042;-83
2021/09/12 02:03:54;;;;;;;12.32;8.60;;;;;;;13.90;100.00;100866.84;4998898;28;20100;-79
2021/09/12 02:06:21;;;;;;;9.70;7.38;;;;;;;13.89;100.00;100868.63;4999467;28;20037;-82
2021/09/12 02:08:48;;;;;;;9.77;7.63;;;;;;;13.84;100.00;100867.88;5013438;28;20443;-77
2021/09/12 02:11:15;;;;;;;10.88;7.80;;;;;;;13.80;100.00;100867.13;5008860;28;20096;-78
2021/09/12 02:13:42;;;;;;;12.35;8.50;;;;;;;13.81;100.00;100862.69;4991927;28;20057;-80
2021/09/12 02:16:09;;;;;;;8.75;7.18;;;;;;;13.79;100.00;100862.72;4980112;28;20092;-78
2021/09/12 02:18:35;;;;;;;10.38;8.00;;;;;;;13.80;100.00;100866.25;5012038;28;20046;-81
2021/09/12 02:21:02;;;;;;;11.38;8.75;;;;;;;13.79;100.00;100869.81;4995924;28;20273;-78
2021/09/12 02:23:29;;;;;;;10.50;8.23;;;;;;;13.77;100.00;100867.19;5014974;28;20050;-78
2021/09/12 02:25:56;;;;;;;9.20;7.53;;;;;;;13.76;100.00;100860.16;5022190;28;20045;-80
2021/09/12 02:28:22;;;;;;;12.77;8.88;;;;;;;13.76;100.00;100859.28;5027029;28;20038;-78
2021/09/12 02:30:49;;;;;;;12.52;8.85;;;;;;;13.73;100.00;100854.06;5004934;28;20046;-78
2021/09/12 02:33:16;;;;;;;12.45;9.20;;;;;;;13.70;100.00;100854.16;5013171;28;20487;-81
2021/09/12 02:35:43;;;;;;;12.40;8.65;;;;;;;13.71;100.00;100856.78;4997578;28;20503;-77
2021/09/12 02:38:12;;;;;;;11.68;8.60;;;;;;;13.70;100.00;100862.97;4996965;28;20046;-77
2021/09/12 02:40:40;;;;;;;10.88;8.38;;;;;;;13.67;100.00;100855.13;4996408;28;20045;-77
2021/09/12 02:43:07;;;;;;;10.80;8.27;;;;;;;13.67;100.00;100855.13;5011487;28;20046;-81
2021/09/12 02:45:37;;;;;;;11.13;9.02;;;;;;;13.64;100.00;100855.22;5018433;28;20034;-77
2021/09/12 02:48:04;;;;;;;11.10;8.75;;;;;;;13.65;100.00;100853.44;4994884;28;20212;-76
2021/09/12 02:50:31;;;;;;;12.65;8.82;;;;;;;13.69;100.00;100857.72;5013184;28;20052;-79
2021/09/12 02:52:58;;;;;;;11.25;8.43;;;;;;;13.66;100.00;100852.50;5016308;28;20109;-83
2021/09/12 02:55:25;;;;;;;10.95;8.18;;;;;;;13.65;100.00;100850.78;4995568;28;20100;-80
2021/09/12 02:57:52;;;;;;;12.25;9.35;;;;;;;13.64;100.00;100846.38;5011434;28;20494;-77
2021/09/12 03:00:18;;;;;;;11.95;8.52;;;;;;;13.64;100.00;100841.94;4979829;28;20049;-83
2021/09/12 03:02:45;;;;;;;13.00;9.43;;;;;;;13.66;100.00;100852.50;4977548;28;20041;-79
2021/09/12 03:05:12;;;;;;;11.23;9.07;;;;;;;13.63;100.00;100852.63;4996495;28;20186;-77
2021/09/12 03:07:39;;;;;;;11.55;9.32;;;;;;;13.62;100.00;100850.84;5010688;28;20046;-79
2021/09/12 03:10:06;;;;;;;11.88;9.20;;;;;;;13.62;100.00;100850.84;4995762;28;20043;-77
2021/09/12 03:12:32;;;;;;;12.88;9.43;;;;;;;13.61;100.00;100851.75;4998948;28;20042;-77
2021/09/12 03:14:59;;;;;;;12.95;9.98;;;;;;;13.61;100.00;100849.13;5015119;28;20041;-79
2021/09/12 03:17:26;;;;;;;13.45;9.82;;;;;;;13.62;100.00;100851.75;4993373;28;20049;-77
2021/09/12 03:19:53;;;;;;;12.60;9.60;;;;;;;13.64;100.00;100849.03;4994947;28;20045;-82
2021/09/12 03:22:19;;;;;;;15.85;11.80;;;;;;;13.69;100.00;100853.28;5018167;28;20057;-78
2021/09/12 03:24:46;;;;;;;16.15;11.45;;;;;;;13.71;100.00;100854.13;5015015;28;20038;-78
2021/09/12 03:27:13;;;;;;;16.13;11.35;;;;;;;13.74;100.00;100861.13;5010092;28;20108;-77
2021/09/12 03:29:40;;;;;;;16.10;11.90;;;;;;;13.76;100.00;100848.66;4979629;28;20396;-79
2021/09/12 03:32:06;;;;;;;19.60;13.27;;;;;;;13.83;100.00;100847.56;5008047;28;20046;-77
2021/09/12 03:34:33;;;;;;;19.25;13.98;;;;;;;13.85;100.00;100848.38;5012989;28;20077;-80
2021/09/12 03:37:00;;;;;;;17.67;13.82;;;;;;;13.85;100.00;100851.03;4999915;28;20050;-80
2021/09/12 03:39:26;;;;;;;23.02;15.25;;;;;;;13.91;100.00;100840.22;5008519;28;20046;-78
2021/09/12 03:41:53;;;;;;;21.17;14.73;;;;;;;13.92;100.00;100846.41;5008434;28;20046;-77
2021/09/12 03:44:20;;;;;;;20.10;13.93;;;;;;;13.93;100.00;100840.16;4997721;28;20042;-83
2021/09/12 03:46:48;;;;;;;21.13;15.30;;;;;;;13.96;100.00;100837.44;4994339;28;20061;-78
2021/09/12 03:49:17;;;;;;;22.08;15.35;;;;;;;13.95;100.00;100835.66;5010574;28;20065;-81
2021/09/12 03:51:43;;;;;;;21.13;14.27;;;;;;;13.90;100.00;100838.50;4978664;28;20053;-78
2021/09/12 03:54:10;;;;;;;19.70;14.25;;;;;;;13.91;100.00;100837.56;5016025;28;20053;-82
2021/09/12 03:56:37;;;;;;;18.52;13.77;;;;;;;13.90;100.00;100833.19;5006166;28;20044;-80
2021/09/12 03:59:03;;;;;;;18.60;13.68;;;;;;;13.92;100.00;100827.81;4993850;28;20050;-77
2021/09/12 04:01:30;;;;;;;20.83;14.85;;;;;;;13.97;100.00;100816.13;5014428;28;20041;-79
2021/09/12 04:03:57;;;;;;;20.75;14.73;;;;;;;13.98;100.00;100828.50;4995711;28;20038;-79
2021/09/12 04:06:24;;;;;;;23.17;15.35;;;;;;;14.00;100.00;100824.00;5016967;28;20052;-79
2021/09/12 04:08:51;;;;;;;21.02;15.13;;;;;;;14.01;100.00;100823.06;5007170;28;20049;-78
2021/09/12 04:11:18;;;;;;;19.60;13.93;;;;;;;13.97;100.00;100825.88;4990713;28;20042;-79
2021/09/12 04:13:45;;;;;;;21.95;15.13;;;;;;;13.98;100.00;100825.84;5007897;28;20048;-79
2021/09/12 04:16:11;;;;;;;20.27;13.73;;;;;;;13.97;100.00;100837.38;4977317;28;20100;-79
2021/09/12 04:18:38;;;;;;;20.55;14.13;;;;;;;13.95;100.00;100838.31;5001049;28;20044;-79
2021/09/12 04:21:05;;;;;;;19.48;13.90;;;;;;;13.88;100.00;100834.16;5008101;28;20411;-79
2021/09/12 04:23:32;;;;;;;17.77;13.35;;;;;;;13.85;100.00;100840.41;4990824;28;20048;-79
2021/09/12 04:25:58;;;;;;;21.63;14.30;;;;;;;13.82;100.00;100837.84;4991983;28;20053;-80
2021/09/12 04:28:25;;;;;;;20.35;14.65;;;;;;;13.82;100.00;100837.84;5011117;28;20430;-77
2021/09/12 04:30:51;;;;;;;19.30;13.68;;;;;;;13.81;100.00;100841.44;4989479;28;20105;-79
2021/09/12 04:33:18;;;;;;;18.58;14.18;;;;;;;13.82;100.00;100844.94;5006583;28;20049;-80
2021/09/12 04:35:45;;;;;;;18.90;13.45;;;;;;;13.80;100.00;100845.88;5014483;28;20045;-80
2021/09/12 04:38:11;;;;;;;17.33;13.25;;;;;;;13.77;100.00;100845.94;4990392;28;20515;-79
2021/09/12 04:40:38;;;;;;;19.13;13.43;;;;;;;13.81;100.00;100846.75;4996891;28;20117;-80
2021/09/12 04:43:05;;;;;;;16.00;12.25;;;;;;;13.79;100.00;100849.44;4990948;28;20049;-81
2021/09/12 04:45:32;;;;;;;20.77;13.82;;;;;;;13.83;100.00;100842.25;5009877;28;20573;-79
2021/09/12 04:47:58;;;;;;;18.80;14.23;;;;;;;13.85;100.00;100843.06;5006231;28;20503;-80
2021/09/12 04:50:25;;;;;;;20.05;14.30;;;;;;;13.88;100.00;100850.94;5009279;28;20038;-79
2021/09/12 04:52:51;;;;;;;20.80;13.85;;;;;;;13.88;100.00;100844.78;4975001;28;20046;-79
2021/09/12 04:55:18;;;;;;;19.42;13.75;;;;;;;13.90;100.00;100843.81;4989116;28;20062;-79
2021/09/12 04:57:45;;;;;;;21.75;14.55;;;;;;;13.92;100.00;100847.28;4990305;28;20061;-79
2021/09/12 05:00:12;;;;;;;20.02;14.63;;;;;;;13.97;100.00;100847.13;4999358;28;20048;-79
2021/09/12 05:02:39;;;;;;;23.00;16.00;;;;;;;14.00;100.00;100842.59;4989487;28;20080;-79
2021/09/12 05:05:06;;;;;;;21.23;14.32;;;;;;;14.04;100.00;100844.25;5003350;28;20045;-79
2021/09/12 05:07:33;;;;;;;21.63;15.50;;;;;;;14.07;100.00;100848.59;4989633;28;20511;-80
2021/09/12 05:10:00;;;;;;;21.40;15.27;;;;;;;14.15;100.00;100856.31;4993731;28;20660;-79
2021/09/12 05:12:28;;;;;;;22.15;16.00;;;;;;;14.18;100.00;100848.22;5010928;28;20033;-78
2021/09/12 05:14:55;;;;;;;27.63;17.73;;;;;;;14.24;100.00;100853.34;5010917;28;20503;-79
2021/09/12 05:17:22;;;;;;;24.48;17.55;;;;;;;14.24;100.00;100842.72;5016385;28;20100;-80
2021/09/12 05:19:49;;;;;;;24.02;16.58;;;;;;;14.37;100.00;100855.53;5016116;28;20053;-79
2021/09/12 05:22:16;;;;;;;24.42;16.05;;;;;;;14.36;100.00;100866.22;5020297;28;20046;-79
2021/09/12 05:24:42;;;;;;;21.25;14.70;;;;;;;14.37;100.00;100854.66;5010965;28;20045;-80
2021/09/12 05:27:09;;;;;;;24.15;16.92;;;;;;;14.38;100.00;100859.09;4998219;28;21062;-79
2021/09/12 05:29:36;;;;;;;27.05;18.65;;;;;;;14.50;100.00;100856.03;4995720;28;20129;-79
2021/09/12 05:32:03;;;;;;;25.63;17.13;;;;;;;14.51;100.00;100855.13;4997035;28;20056;-80
2021/09/12 05:34:30;;;;;;;23.92;16.90;;;;;;;14.54;100.00;100852.34;4991770;28;20037;-80
2021/09/12 05:36:56;;;;;;;20.17;14.27;;;;;;;14.56;100.00;100847.00;5000088;28;20052;-80
2021/09/12 05:39:26;;;;;;;21.52;14.80;;;;;;;14.57;100.00;100844.28;5005720;28;20046;-79
2021/09/12 05:41:53;;;;;;;25.58;19.10;;;;;;;14.63;100.00;100848.53;4997586;28;20710;-80
2021/09/12 05:44:19;;;;;;;25.25;16.90;;;;;;;14.66;100.00;100848.44;5003083;28;20045;-78
2021/09/12 05:46:51;;;;;;;20.48;14.13;;;;;;;14.70;100.00;100846.53;4980583;28;20057;-79
2021/09/12 05:49:19;;;;;;;25.70;15.77;;;;;;;14.71;100.00;100851.78;5007129;28;20067;-80
2021/09/12 05:51:47;;;;;;;23.73;16.27;;;;;;;14.77;100.00;100853.38;5012619;28;20038;-79
2021/09/12 05:54:13;;;;;;;27.27;18.17;;;;;;;14.82;100.00;100854.97;4993436;28;20045;-80
2021/09/12 05:56:40;;;;;;;23.25;15.95;;;;;;;14.86;100.00;100859.22;5010023;28;20085;-79
2021/09/12 05:59:07;;;;;;;25.75;17.17;;;;;;;14.93;100.00;100852.78;5022352;28;20052;-79
2021/09/12 06:01:34;;;;;;;25.27;17.58;;;;;;;14.93;100.00;100852.78;4994016;28;20053;-78
2021/09/12 06:04:01;;;;;;;24.75;16.10;;;;;;;14.92;100.00;100863.47;4995393;28;20045;-80
2021/09/12 06:06:28;;;;;;;27.02;17.42;;;;;;;15.01;100.00;100860.50;4994219;28;20046;-78
2021/09/12 06:08:55;;;;;;;25.33;17.20;;;;;;;14.97;100.00;100861.53;4994138;28;20056;-79
2021/09/12 06:11:21;;;;;;;29.75;19.40;;;;;;;15.05;100.00;100867.47;5009693;28;20038;-79
2021/09/12 06:13:48;;;;;;;25.02;18.20;;;;;;;15.01;100.00;100865.81;5010906;28;20057;-79
2021/09/12 06:16:15;;;;;;;23.50;15.80;;;;;;;15.07;100.00;100864.75;4978019;28;20625;-79
2021/09/12 06:18:42;;;;;;;24.92;17.73;;;;;;;15.17;100.00;100864.34;4991395;28;20049;-79
2021/09/12 06:21:09;;;;;;;23.98;16.67;;;;;;;15.21;100.00;100863.28;4993012;28;20045;-79
2021/09/12 06:23:36;;;;;;;23.50;16.58;;;;;;;15.31;100.00;100868.31;5007174;28;20046;-79
2021/09/12 06:26:03;;;;;;;23.75;16.13;;;;;;;15.42;100.00;100872.31;4997240;28;20511;-82
2021/09/12 06:28:30;;;;;;;26.58;16.75;;;;;;;15.46;100.00;100875.69;5019732;28;20100;-78
2021/09/12 06:30:57;;;;;;;27.65;17.00;;;;;;;15.53;100.00;100879.88;5013072;28;20038;-82
2021/09/12 06:33:23;;;;;;;22.50;15.20;;;;;;;15.56;100.00;100885.09;4996776;28;20044;-79
2021/09/12 06:35:50;;;;;;;24.13;16.00;;;;;;;15.60;100.00;100883.19;4998850;28;20458;-79
2021/09/12 06:38:17;;;;;;;21.20;15.88;;;;;;;15.64;100.00;100882.19;5001834;28;20045;-80
2021/09/12 06:40:43;;;;;;;27.65;17.33;;;;;;;15.70;100.00;100882.81;5012155;28;20045;-79
2021/09/12 06:43:10;;;;;;;24.63;15.43;;;;;;;15.78;100.00;100882.50;5013168;28;20060;-77
2021/09/12 06:45:37;;;;;;;18.90;14.20;;;;;;;15.75;100.00;100880.84;5027125;28;20053;-81
2021/09/12 06:48:04;;;;;;;22.33;16.17;;;;;;;15.81;100.00;100881.53;4991410;28;20044;-79
2021/09/12 06:50:30;;;;;;;21.15;15.25;;;;;;;15.92;100.00;100879.31;5005785;28;20107;-78
2021/09/12 06:52:58;;;;;;;23.27;16.27;;;;;;;15.96;100.00;100881.78;5021175;28;20050;-78
2021/09/12 06:55:25;;;;;;;21.92;15.35;;;;;;;16.00;100.00;100887.91;5013424;28;20049;-78
2021/09/12 06:57:51;;;;;;;25.20;14.45;;;;;;;16.00;100.00;100883.44;5014508;28;20069;-81
2021/09/12 07:00:18;;;;;;;23.52;15.95;;;;;;;15.96;100.00;100883.59;4996405;28;20046;-78
2021/09/12 07:02:45;;;;;;;21.20;15.20;;;;;;;16.01;100.00;100882.50;4996673;28;20056;-80
2021/09/12 07:05:12;;;;;;;18.60;13.52;;;;;;;16.01;100.00;100886.97;4997881;28;20128;-80
2021/09/12 07:07:39;;;;;;;21.13;15.25;;;;;;;16.13;100.00;100890.94;5009654;28;20041;-80
2021/09/12 07:10:07;;;;;;;22.17;14.77;;;;;;;16.25;100.00;100888.66;5012125;28;20066;-82
2021/09/12 07:12:33;;;;;;;22.60;17.25;;;;;;;16.24;100.00;100891.38;5014540;28;20416;-79
2021/09/12 07:15:00;;;;;;;22.55;15.23;;;;;;;16.27;100.00;100894.78;5012747;28;20466;-80
2021/09/12 07:17:27;;;;;;;21.50;15.65;;;;;;;16.33;100.00;100891.88;5027156;28;20033;-79
2021/09/12 07:19:53;;;;;;;21.08;14.27;;;;;;;16.35;100.00;100896.28;5017784;28;20042;-79
2021/09/12 07:22:20;;;;;;;18.52;13.88;;;;;;;16.38;100.00;100897.00;4990108;28;20041;-82
2021/09/12 07:24:46;;;;;;;25.90;16.17;;;;;;;16.42;100.00;100889.78;5008463;28;20057;-83
2021/09/12 07:27:15;;;;;;;21.50;15.68;;;;;;;16.54;100.00;100895.44;4988810;28;20073;-83
2021/09/12 07:29:44;;;;;;;23.55;15.60;;;;;;;16.66;100.00;100898.56;4991149;28;20042;-81
2021/09/12 07:32:11;;;;;;;20.27;15.15;;;;;;;16.78;100.00;100901.59;5010591;28;20095;-79
2021/09/12 07:34:37;;;;;;;20.85;15.23;;;;;;;16.92;100.00;100897.50;4992668;28;20554;-79
2021/09/12 07:37:05;;;;;;;19.80;14.38;;;;;;;17.02;100.00;100902.34;5019416;28;20046;-80
2021/09/12 07:39:32;;;;;;;22.15;15.52;;;;;;;17.24;100.00;100902.28;5031075;28;20084;-81
2021/09/12 07:42:00;;;;;;;21.08;15.52;;;;;;;17.47;100.00;100908.41;5008195;28;20077;-80
2021/09/12 07:44:27;;;;;;;21.83;14.43;;;;;;;17.61;100.00;100903.31;5008472;28;20494;-81
2021/09/12 07:46:54;;;;;;;15.23;12.23;;;;;;;17.63;100.00;100904.09;5038063;28;20045;-79
2021/09/12 07:49:21;;;;;;;20.05;13.18;;;;;;;17.84;100.00;100904.97;4985366;28;20045;-80
2021/09/12 07:51:47;;;;;;;16.50;13.63;;;;;;;17.96;100.00;100902.56;5000746;28;20054;-80
2021/09/12 07:54:14;;;;;;;18.60;13.30;;;;;;;18.02;100.00;100911.25;5027407;28;20042;-79
2021/09/12 07:56:41;;;;;;;15.85;11.68;;;;;;;18.14;100.00;100906.16;5001052;28;20038;-82
2021/09/12 07:59:08;;;;;;;17.98;13.45;;;;;;;18.38;100.00;100919.28;5008294;28;20704;-80
2021/09/12 08:01:36;;;;;;;18.20;12.65;;;;;;;18.41;100.00;100911.97;5008888;28;20092;-82
2021/09/12 08:04:03;;;;;;;18.35;11.73;;;;;;;18.59;100.00;100910.22;4992028;28;20064;-80
2021/09/12 08:06:34;;;;;;;16.55;11.98;;;;;;;18.71;100.00;100914.13;5006214;28;20049;-80
2021/09/12 08:09:01;;;;;;;17.23;12.43;;;;;;;19.07;100.00;100914.06;4988849;28;20109;-80
2021/09/12 08:11:27;;;;;;;15.38;11.88;;;;;;;19.23;100.00;100914.13;5012357;28;20108;-82
2021/09/12 08:13:54;;;;;;;12.55;10.15;;;;;;;19.32;100.00;100911.81;4991837;28;20464;-81
2021/09/12 08:16:20;;;;;;;15.43;11.73;;;;;;;19.49;97.48;100910.94;5024432;28;20050;-79
2021/09/12 08:18:47;;;;;;;13.93;10.98;;;;;;;19.56;98.20;100915.06;5024957;28;20092;-81
2021/09/12 08:21:14;;;;;;;13.95;11.55;;;;;;;19.53;96.32;100908.97;5002154;28;20073;-80
2021/09/12 08:23:41;;;;;;;14.88;12.02;;;;;;;19.43;93.00;100916.63;5013681;28;20041;-79
2021/09/12 08:26:09;;;;;;;13.77;10.93;;;;;;;19.44;93.29;100921.03;4993030;28;20050;-82
2021/09/12 08:28:35;;;;;;;14.77;11.43;;;;;;;19.31;93.87;100925.31;5008177;28;20727;-79
2021/09/12 08:31:02;;;;;;;16.50;12.23;;;;;;;19.20;94.20;100920.53;5012847;28;20048;-79
2021/09/12 08:33:29;;;;;;;14.52;11.70;;;;;;;19.41;95.99;100921.19;5013723;28;20034;-82
2021/09/12 08:35:56;;;;;;;14.43;11.40;;;;;;;19.37;95.27;100915.13;4994268;28;20101;-83
2021/09/12 08:38:23;;;;;;;14.07;11.23;;;;;;;19.32;95.20;100919.00;5005463;28;20084;-84
2021/09/12 08:40:54;;;;;;;12.77;10.30;;;;;;;19.42;95.66;100925.59;5008354;28;20522;-82
2021/09/12 08:43:21;;;;;;;13.25;10.20;;;;;;;19.48;95.50;100922.59;4970761;28;20046;-81
2021/09/12 08:45:49;;;;;;;14.45;10.73;;;;;;;19.58;92.94;100925.69;5003923;28;20452;-83
2021/09/12 08:48:16;;;;;;;16.25;11.60;;;;;;;19.63;93.78;100932.53;5027153;28;20514;-79
2021/09/12 08:50:44;;;;;;;11.15;9.82;;;;;;;19.53;90.91;100928.59;5012758;28;20208;-81
2021/09/12 08:53:10;;;;;;;15.68;10.93;;;;;;;19.71;92.91;100924.09;4996546;28;20096;-80
2021/09/12 08:55:37;;;;;;;13.05;10.68;;;;;;;19.75;93.19;100933.69;5011893;28;20048;-80
2021/09/12 08:58:04;;;;;;;12.20;10.25;;;;;;;19.81;92.88;100937.84;5025181;28;20040;-81
2021/09/12 09:00:31;;;;;;;12.57;10.65;;;;;;;19.85;90.67;100939.44;5028132;28;20037;-80
2021/09/12 09:03:00;;;;;;;12.43;9.98;;;;;;;19.84;90.33;100943.03;5001656;28;20454;-80
2021/09/12 09:05:28;;;;;;;12.05;9.23;;;;;;;19.80;93.09;100938.81;5006722;28;20049;-81
2021/09/12 09:08:11;;;;;;;14.07;10.80;;;;;;;19.85;91.66;100934.06;5006349;28;20040;-82
2021/09/12 09:10:45;;;;;;;12.82;10.10;;;;;;;19.96;91.00;100927.16;5011786;28;20042;-81
2021/09/12 09:13:38;;;;;;;17.60;10.73;;;;;;;19.99;90.61;100926.13;5026669;28;20104;-79
2021/09/12 09:16:07;;;;;;;13.20;10.35;;;;;;;19.94;89.31;100936.25;4994926;28;20454;-78
2021/09/12 09:18:35;;;;;;;14.82;9.60;;;;;;;19.88;89.06;100936.56;5009744;28;20871;-80
2021/09/12 09:21:24;;;;;;;12.85;9.82;;;;;;;19.75;91.04;100933.69;4973646;28;20112;-79
2021/09/12 09:24:10;;;;;;;14.23;10.82;;;;;;;19.78;91.97;100936.22;4969206;28;20423;-81
2021/09/12 09:26:42;;;;;;;15.27;11.30;;;;;;;19.79;90.96;100931.72;4995905;28;20553;-80
2021/09/12 09:29:09;;;;;;;12.98;9.95;;;;;;;19.75;91.29;100941.72;5010620;28;20527;-79
2021/09/12 09:31:36;;;;;;;12.35;9.35;;;;;;;19.72;90.20;100930.31;5012355;28;20053;-78
2021/09/12 09:34:17;;;;;;;13.57;10.88;;;;;;;19.73;89.56;100921.31;4995176;28;20050;-79
2021/09/12 09:36:45;;;;;;;9.43;8.40;;;;;;;19.73;90.85;100926.69;5022458;28;20048;-81
2021/09/12 09:39:12;;;;;;;12.30;9.93;;;;;;;19.78;91.36;100928.16;5010036;28;20606;-81
2021/09/12 09:41:39;;;;;;;12.38;10.48;;;;;;;19.93;88.04;100921.97;5013540;28;20080;-79
2021/09/12 09:44:12;;;;;;;12.38;9.60;;;;;;;19.94;86.44;100923.69;4993406;28;20050;-78
2021/09/12 09:46:43;;;;;;;10.77;8.63;;;;;;;19.98;89.00;100923.53;4997587;28;20088;-79
2021/09/12 09:49:20;;;;;;;11.38;9.70;;;;;;;20.00;87.59;100925.16;5013176;28;20045;-79
2021/09/12 09:51:56;;;;;;;11.23;9.05;;;;;;;20.12;87.35;100924.50;4994536;28;20188;-79
2021/09/12 09:54:24;;;;;;;14.10;8.85;;;;;;;20.22;85.23;100924.84;5008091;28;20045;-80
2021/09/12 09:56:52;;;;;;;12.15;10.02;;;;;;;20.28;86.27;100913.78;4991191;28;20050;-79
2021/09/12 09:59:20;;;;;;;12.77;9.43;;;;;;;20.36;88.32;100919.56;4992039;28;20644;-81
2021/09/12 10:01:51;;;;;;;12.60;9.77;;;;;;;20.59;83.40;100912.88;5008981;28;20037;-80
2021/09/12 10:04:24;;;;;;;12.25;10.20;;;;;;;20.61;81.81;100916.38;5009599;28;20046;-80
2021/09/12 10:06:51;;;;;;;9.93;8.70;;;;;;;20.63;82.87;100922.50;5009786;28;20069;-80
2021/09/12 10:09:25;;;;;;;11.70;9.00;;;;;;;20.62;83.28;100915.41;5001210;28;20075;-78
2021/09/12 10:11:59;;;;;;;9.93;8.27;;;;;;;20.46;82.64;100922.63;4990151;28;20049;-81
2021/09/12 10:14:41;;;;;;;11.52;10.18;;;;;;;20.33;81.31;100922.41;5009236;28;20046;-81
2021/09/12 10:17:14;;;;;;;10.15;8.60;;;;;;;20.41;84.72;100924.66;5014197;28;20112;-80
2021/09/12 10:19:42;;;;;;;10.70;8.63;;;;;;;20.40;83.33;100928.28;4993281;28;20045;-83
2021/09/12 10:22:11;;;;;;;12.07;8.90;;;;;;;20.53;83.02;100915.94;5024464;28;20855;-80
2021/09/12 10:25:06;;;;;;;12.75;9.57;;;;;;;20.54;82.76;100920.34;5016869;28;20041;-81
2021/09/12 10:27:37;;;;;;;12.80;9.48;;;;;;;20.56;79.32;100918.44;5013732;28;20041;-82
2021/09/12 10:30:25;;;;;;;10.63;8.35;;;;;;;20.47;81.14;100922.53;4988402;28;20042;-82
2021/09/12 10:33:13;;;;;;;10.02;8.30;;;;;;;20.71;81.77;100916.69;5025154;28;20045;-80
2021/09/12 10:35:45;;;;;;;48.55;32.75;;;;;;;20.84;76.56;100919.50;4992605;28;20046;-82
2021/09/12 10:38:14;;;;;;;14.65;11.65;;;;;;;21.10;78.24;100921.50;5007180;28;20049;-81
2021/09/12 10:40:47;;;;;;;9.90;8.70;;;;;;;21.21;78.09;100920.88;5004847;28;20533;-79
2021/09/12 10:43:25;;;;;;;15.77;14.07;;;;;;;21.41;76.17;100914.31;5004276;28;20037;-80
2021/09/12 10:46:01;;;;;;;11.90;9.15;;;;;;;21.31;75.63;100920.25;5006937;28;20121;-81
2021/09/12 10:48:32;;;;;;;9.30;7.78;;;;;;;21.24;76.20;100920.69;5005869;28;20037;-81
2021/09/12 10:51:06;;;;;;;7.90;7.00;;;;;;;21.12;76.60;100921.44;5026439;28;20041;-80
2021/09/12 10:53:42;;;;;;;8.02;6.80;;;;;;;21.19;78.78;100920.97;5003625;28;20038;-80
2021/09/12 10:56:13;;;;;;;9.25;7.43;;;;;;;21.26;76.40;100906.19;5010337;28;20049;-82
2021/09/12 10:58:40;;;;;;;10.07;7.43;;;;;;;21.04;73.59;100919.19;5009840;28;20049;-80
2021/09/12 11:01:08;;;;;;;8.57;7.53;;;;;;;21.04;75.87;100911.16;5009950;28;20046;-82
2021/09/12 11:03:35;;;;;;;9.15;7.47;;;;;;;21.08;75.01;100908.16;4994440;28;20049;-80
2021/09/12 11:06:02;;;;;;;7.15;6.22;;;;;;;21.41;75.86;100900.88;4993620;28;20511;-81
2021/09/12 11:08:36;;;;;;;7.00;6.30;;;;;;;21.72;73.18;100903.38;5014039;28;20626;-82
2021/09/12 11:11:05;;;;;;;7.88;6.30;;;;;;;21.89;68.99;100903.16;4999864;28;20562;-79